Annaba, Algeria

7:58 PM CET on August 27, 2014 (GMT +0100)
Rabah Bitat | Change Station
CLOSE
Current Station
Airport
Location: Annaba,
Elevation: 13 ft
Nearby Weather Stations

Elev 13 ft 36.82 °N, 7.81 °E | Updated 28 minutes ago

Partly Cloudy
Partly Cloudy
79 °F
Feels Like 79 °F
N
12
Wind Variable Wind from East

Today
High -- | Low -- °F
--% Chance of Precip.
Yesterday
High -- | Low -- °F
Precip. -- in
5:55 AM 7:04 PM
Waxing Crescent, 4% visible
Pressure 29.92 in
Visibility 6.2 miles
Clouds Few 2600 ft
Dew Point 75 °F
Humidity 89%
Rainfall 0.00 in
Snow Depth Not available.
UV 0 out of 12
Pollen Not available.
Air Quality Not available.
Flu Activity Not available.
METAR DABB 271830Z 08010KT 9999 FEW026 26/24 Q1013

More Conditions Fewer Conditions

Pressure 29.92 in
Visibility 6.2 miles
Clouds Few 2600 ft
Dew Point 75 °F
Humidity 89%
Rainfall 0.00 in
Snow Depth Not available.
UV 0 out of 12
Pollen Not available.
Air Quality Not available.
Flu Activity Not available.
METAR DABB 271830Z 08010KT 9999 FEW026 26/24 Q1013

More Conditions Fewer Conditions

10-Day Weather Forecast

Almanac

Astronomy

Aug. 27, 2014 Rise Set
Actual Time 5:55 AM CET 7:04 PM CET
Civil Twilight 5:28 AM CET 7:31 PM CET
Nautical Twilight 4:56 AM CET 8:03 PM CET
Astronomical Twilight 4:23 AM CET 8:36 PM CET
Moon 7:32 AM CET 7:52 PM CET
Length of Visible Light 14h 02m
Length of Day
13h 09m
Tomorrow will be 2m 12s shorter.
Waxing Crescent, 4% of the Moon is Illuminated
Today
Waxing Crescent
Sep 2
First Quarter
Sep 8
Full
Sep 15
Last Quarter
Sep 24
New

Today's Extremes

Country Highs Country Lows

Community

WunderPhotos

Upload Photos

1,747,752 photos uploaded!

Nearby

Snow Depth

Not available.

Earthquake Activity

City Distance Mag. Time & Date
No recent earthquake activity has been reported nearby.
Minimum magnitude displayed is 2.5.

Coastal Water Temperatures

Place Temperature
No Stations Reporting

Nearby Weather Stations